Hill Country Village, Texas
Current Conditions -  °F | °C
As of 7:51 PM on Friday 24 Oct 2014 (Local Time) from KSAT Reporting Station
Few Clouds Few Clouds  
Wind Chill: 76°   Ceiling: Unl
Heat Index: 76°   Visibility: 10mi
Dew Point: 57°   Wind: 8mph
Humidity: 52%   Direction: 140°SE
Pressure: 30.1"   Gusts: NA
Location:  29.5876°N, 98.474°W
Report Text: KSAT 250051Z 14007KT 10SM FEW050 24/14 A3010 RMK AO2 SLP179 T02440139
Loading
Personal Weather Stations






























Interactive Weather Map
Tropical Storm Tracking
New forecast layout! Learn more

10-Day Weather Forecast

Advertisements
Track Severe Weather on mobile